sensor_id;sensor_type;location;lat;lon;timestamp;pressure;altitude;pressure_sealevel;temperature
19196;BMP280;9730;48.926;11.376;2022-08-19T00:01:16;96647.44;;;19.76
19196;BMP280;9730;48.926;11.376;2022-08-19T00:03:42;96643.94;;;19.77
19196;BMP280;9730;48.926;11.376;2022-08-19T00:06:09;96634.09;;;19.82
19196;BMP280;9730;48.926;11.376;2022-08-19T00:08:37;96634.16;;;19.73
19196;BMP280;9730;48.926;11.376;2022-08-19T00:11:03;96635.31;;;19.78
19196;BMP280;9730;48.926;11.376;2022-08-19T00:13:30;96632.16;;;19.84
19196;BMP280;9730;48.926;11.376;2022-08-19T00:15:57;96632.84;;;19.86
19196;BMP280;9730;48.926;11.376;2022-08-19T00:18:25;96636.19;;;19.70
19196;BMP280;9730;48.926;11.376;2022-08-19T00:20:52;96647.16;;;19.79
19196;BMP280;9730;48.926;11.376;2022-08-19T00:23:19;96648.31;;;19.68
19196;BMP280;9730;48.926;11.376;2022-08-19T00:25:47;96653.94;;;19.71
19196;BMP280;9730;48.926;11.376;2022-08-19T00:28:13;96659.06;;;19.54
19196;BMP280;9730;48.926;11.376;2022-08-19T00:30:40;96649.13;;;19.68
19196;BMP280;9730;48.926;11.376;2022-08-19T00:33:06;96653.03;;;19.89
19196;BMP280;9730;48.926;11.376;2022-08-19T00:35:33;96660.38;;;19.58
19196;BMP280;9730;48.926;11.376;2022-08-19T00:38:00;96640.78;;;19.49
19196;BMP280;9730;48.926;11.376;2022-08-19T00:40:27;96639.63;;;19.17
19196;BMP280;9730;48.926;11.376;2022-08-19T00:42:54;96653.22;;;19.17
19196;BMP280;9730;48.926;11.376;2022-08-19T00:45:25;96654.19;;;19.16
19196;BMP280;9730;48.926;11.376;2022-08-19T00:47:52;96663.75;;;19.05
19196;BMP280;9730;48.926;11.376;2022-08-19T00:50:19;96658.50;;;19.06
19196;BMP280;9730;48.926;11.376;2022-08-19T00:52:49;96653.22;;;19.17
19196;BMP280;9730;48.926;11.376;2022-08-19T00:55:19;96659.41;;;19.15
19196;BMP280;9730;48.926;11.376;2022-08-19T00:57:51;96664.28;;;19.08
19196;BMP280;9730;48.926;11.376;2022-08-19T01:00:22;96674.50;;;18.99
19196;BMP280;9730;48.926;11.376;2022-08-19T01:02:49;96666.72;;;19.00
19196;BMP280;9730;48.926;11.376;2022-08-19T01:05:18;96660.69;;;19.28
19196;BMP280;9730;48.926;11.376;2022-08-19T01:07:47;96672.31;;;19.13
19196;BMP280;9730;48.926;11.376;2022-08-19T01:10:16;96682.97;;;18.99
19196;BMP280;9730;48.926;11.376;2022-08-19T01:12:44;96687.19;;;18.91
19196;BMP280;9730;48.926;11.376;2022-08-19T01:15:14;96685.16;;;18.94
19196;BMP280;9730;48.926;11.376;2022-08-19T01:17:43;96693.75;;;18.93
19196;BMP280;9730;48.926;11.376;2022-08-19T01:20:13;96693.34;;;19.07
19196;BMP280;9730;48.926;11.376;2022-08-19T01:22:44;96690.31;;;19.21
19196;BMP280;9730;48.926;11.376;2022-08-19T01:25:13;96704.19;;;19.18
19196;BMP280;9730;48.926;11.376;2022-08-19T01:27:42;96699.28;;;18.98
19196;BMP280;9730;48.926;11.376;2022-08-19T01:30:12;96698.44;;;18.98
19196;BMP280;9730;48.926;11.376;2022-08-19T01:32:39;96704.59;;;19.14
19196;BMP280;9730;48.926;11.376;2022-08-19T01:35:06;96704.56;;;19.23
19196;BMP280;9730;48.926;11.376;2022-08-19T01:37:46;96710.75;;;19.21
19196;BMP280;9730;48.926;11.376;2022-08-19T01:40:13;96706.94;;;19.34
19196;BMP280;9730;48.926;11.376;2022-08-19T01:42:40;96706.16;;;19.34
19196;BMP280;9730;48.926;11.376;2022-08-19T01:45:08;96704.53;;;19.33
19196;BMP280;9730;48.926;11.376;2022-08-19T01:47:35;96707.91;;;19.24
19196;BMP280;9730;48.926;11.376;2022-08-19T01:50:02;96716.44;;;19.15
19196;BMP280;9730;48.926;11.376;2022-08-19T01:52:30;96720.66;;;19.07
19196;BMP280;9730;48.926;11.376;2022-08-19T01:55:00;96721.59;;;19.06
19196;BMP280;9730;48.926;11.376;2022-08-19T01:57:27;96731.66;;;18.98
19196;BMP280;9730;48.926;11.376;2022-08-19T01:59:53;96740.31;;;18.87
19196;BMP280;9730;48.926;11.376;2022-08-19T02:02:20;96742.31;;;18.93
19196;BMP280;9730;48.926;11.376;2022-08-19T02:04:47;96754.56;;;18.90
19196;BMP280;9730;48.926;11.376;2022-08-19T02:07:13;96751.06;;;18.91
19196;BMP280;9730;48.926;11.376;2022-08-19T02:09:40;96747.94;;;19.06
19196;BMP280;9730;48.926;11.376;2022-08-19T02:12:08;96746.84;;;19.18
19196;BMP280;9730;48.926;11.376;2022-08-19T02:14:35;96729.47;;;19.21
19196;BMP280;9730;48.926;11.376;2022-08-19T02:17:03;96730.09;;;19.33
19196;BMP280;9730;48.926;11.376;2022-08-19T02:19:29;96731.75;;;19.24
19196;BMP280;9730;48.926;11.376;2022-08-19T02:21:57;96732.72;;;19.14
19196;BMP280;9730;48.926;11.376;2022-08-19T02:24:25;96742.19;;;19.04
19196;BMP280;9730;48.926;11.376;2022-08-19T02:26:52;96743.25;;;18.92
19196;BMP280;9730;48.926;11.376;2022-08-19T02:29:20;96756.44;;;18.88
19196;BMP280;9730;48.926;11.376;2022-08-19T02:31:47;96755.78;;;18.86
19196;BMP280;9730;48.926;11.376;2022-08-19T02:34:14;96755.09;;;18.93
19196;BMP280;9730;48.926;11.376;2022-08-19T02:36:40;96748.63;;;18.89
19196;BMP280;9730;48.926;11.376;2022-08-19T02:39:07;96745.16;;;18.90
19196;BMP280;9730;48.926;11.376;2022-08-19T02:41:33;96740.59;;;18.84
19196;BMP280;9730;48.926;11.376;2022-08-19T02:44:02;96734.22;;;19.07
19196;BMP280;9730;48.926;11.376;2022-08-19T02:46:32;96731.94;;;19.14
19196;BMP280;9730;48.926;11.376;2022-08-19T02:49:02;96731.00;;;18.96
19196;BMP280;9730;48.926;11.376;2022-08-19T02:51:32;96728.53;;;19.13
19196;BMP280;9730;48.926;11.376;2022-08-19T02:53:59;96715.25;;;19.10
19196;BMP280;9730;48.926;11.376;2022-08-19T02:56:26;96705.66;;;19.21
19196;BMP280;9730;48.926;11.376;2022-08-19T02:58:54;96693.25;;;19.26
19196;BMP280;9730;48.926;11.376;2022-08-19T03:01:23;96686.16;;;19.20
19196;BMP280;9730;48.926;11.376;2022-08-19T03:03:51;96684.41;;;19.20
19196;BMP280;9730;48.926;11.376;2022-08-19T03:06:18;96686.66;;;18.87
19196;BMP280;9730;48.926;11.376;2022-08-19T03:08:47;96692.41;;;18.99
19196;BMP280;9730;48.926;11.376;2022-08-19T03:11:14;96692.16;;;18.92
19196;BMP280;9730;48.926;11.376;2022-08-19T03:13:41;96688.69;;;18.84
19196;BMP280;9730;48.926;11.376;2022-08-19T03:16:09;96685.75;;;18.79
19196;BMP280;9730;48.926;11.376;2022-08-19T03:18:36;96682.63;;;18.85
19196;BMP280;9730;48.926;11.376;2022-08-19T03:21:04;96682.38;;;18.78
19196;BMP280;9730;48.926;11.376;2022-08-19T03:23:31;96685.53;;;18.63
19196;BMP280;9730;48.926;11.376;2022-08-19T03:25:59;96685.50;;;18.72
19196;BMP280;9730;48.926;11.376;2022-08-19T03:28:30;96705.09;;;18.81
19196;BMP280;9730;48.926;11.376;2022-08-19T03:30:58;96713.88;;;18.60
19196;BMP280;9730;48.926;11.376;2022-08-19T03:33:26;96721.00;;;18.66
19196;BMP280;9730;48.926;11.376;2022-08-19T03:36:00;96730.53;;;18.73
19196;BMP280;9730;48.926;11.376;2022-08-19T03:38:28;96733.75;;;18.75
19196;BMP280;9730;48.926;11.376;2022-08-19T03:40:55;96734.69;;;18.74
19196;BMP280;9730;48.926;11.376;2022-08-19T03:43:21;96734.66;;;18.84
19196;BMP280;9730;48.926;11.376;2022-08-19T03:45:48;96731.97;;;18.85
19196;BMP280;9730;48.926;11.376;2022-08-19T03:48:16;96726.47;;;18.90
19196;BMP280;9730;48.926;11.376;2022-08-19T03:50:43;96733.59;;;18.86
19196;BMP280;9730;48.926;11.376;2022-08-19T03:53:09;96735.03;;;18.98
19196;BMP280;9730;48.926;11.376;2022-08-19T03:55:40;96720.22;;;19.11
19196;BMP280;9730;48.926;11.376;2022-08-19T03:58:07;96739.06;;;19.10
19196;BMP280;9730;48.926;11.376;2022-08-19T04:00:33;96731.50;;;19.18
19196;BMP280;9730;48.926;11.376;2022-08-19T04:03:01;96736.59;;;19.18
19196;BMP280;9730;48.926;11.376;2022-08-19T04:05:27;96730.69;;;19.18
19196;BMP280;9730;48.926;11.376;2022-08-19T04:07:54;96734.38;;;18.96
19196;BMP280;9730;48.926;11.376;2022-08-19T04:10:24;96727.25;;;19.09
19196;BMP280;9730;48.926;11.376;2022-08-19T04:12:52;96734.59;;;19.21
19196;BMP280;9730;48.926;11.376;2022-08-19T04:15:18;96736.13;;;18.96
19196;BMP280;9730;48.926;11.376;2022-08-19T04:17:46;96740.84;;;18.91
19196;BMP280;9730;48.926;11.376;2022-08-19T04:20:12;96741.25;;;18.86
19196;BMP280;9730;48.926;11.376;2022-08-19T04:22:39;96743.66;;;19.07
19196;BMP280;9730;48.926;11.376;2022-08-19T04:25:06;96748.22;;;18.94
19196;BMP280;9730;48.926;11.376;2022-08-19T04:27:32;96751.59;;;18.94
19196;BMP280;9730;48.926;11.376;2022-08-19T04:30:00;96753.47;;;18.83
19196;BMP280;9730;48.926;11.376;2022-08-19T04:32:27;96764.13;;;18.78
19196;BMP280;9730;48.926;11.376;2022-08-19T04:34:54;96771.38;;;18.83
19196;BMP280;9730;48.926;11.376;2022-08-19T04:37:21;96778.63;;;18.87
19196;BMP280;9730;48.926;11.376;2022-08-19T04:39:48;96771.19;;;19.03
19196;BMP280;9730;48.926;11.376;2022-08-19T04:42:32;96775.66;;;19.01
19196;BMP280;9730;48.926;11.376;2022-08-19T04:45:08;96785.03;;;19.01
19196;BMP280;9730;48.926;11.376;2022-08-19T04:47:35;96783.19;;;19.12
19196;BMP280;9730;48.926;11.376;2022-08-19T04:50:03;96781.56;;;19.11
19196;BMP280;9730;48.926;11.376;2022-08-19T04:52:29;96784.78;;;19.13
19196;BMP280;9730;48.926;11.376;2022-08-19T04:54:57;96781.72;;;19.10
19196;BMP280;9730;48.926;11.376;2022-08-19T04:57:24;96780.72;;;19.20
19196;BMP280;9730;48.926;11.376;2022-08-19T04:59:53;96773.50;;;19.06
19196;BMP280;9730;48.926;11.376;2022-08-19T05:02:22;96783.03;;;18.95
19196;BMP280;9730;48.926;11.376;2022-08-19T05:04:51;96786.41;;;18.95
19196;BMP280;9730;48.926;11.376;2022-08-19T05:07:17;96799.06;;;19.06
19196;BMP280;9730;48.926;11.376;2022-08-19T05:09:44;96805.38;;;19.02
19196;BMP280;9730;48.926;11.376;2022-08-19T05:12:10;96810.88;;;19.07
19196;BMP280;9730;48.926;11.376;2022-08-19T05:14:37;96799.94;;;19.24
19196;BMP280;9730;48.926;11.376;2022-08-19T05:17:03;96801.78;;;19.41
19196;BMP280;9730;48.926;11.376;2022-08-19T05:19:31;96796.44;;;19.34
19196;BMP280;9730;48.926;11.376;2022-08-19T05:22:15;96797.75;;;19.38
19196;BMP280;9730;48.926;11.376;2022-08-19T05:25:03;96798.44;;;19.31
19196;BMP280;9730;48.926;11.376;2022-08-19T05:27:30;96810.59;;;19.01
19196;BMP280;9730;48.926;11.376;2022-08-19T05:29:57;96809.94;;;18.99
19196;BMP280;9730;48.926;11.376;2022-08-19T05:32:24;96808.19;;;18.99
19196;BMP280;9730;48.926;11.376;2022-08-19T05:34:52;96799.56;;;19.19
19196;BMP280;9730;48.926;11.376;2022-08-19T05:37:19;96791.31;;;19.34
19196;BMP280;9730;48.926;11.376;2022-08-19T05:39:46;96794.22;;;19.39
19196;BMP280;9730;48.926;11.376;2022-08-19T05:42:14;96805.94;;;19.42
19196;BMP280;9730;48.926;11.376;2022-08-19T05:44:43;96806.03;;;19.50
19196;BMP280;9730;48.926;11.376;2022-08-19T05:47:11;96806.44;;;19.55
19196;BMP280;9730;48.926;11.376;2022-08-19T05:49:38;96801.03;;;19.58
19196;BMP280;9730;48.926;11.376;2022-08-19T05:52:08;96796.16;;;19.64
19196;BMP280;9730;48.926;11.376;2022-08-19T05:54:37;96802.94;;;19.46
19196;BMP280;9730;48.926;11.376;2022-08-19T05:57:06;96797.28;;;19.52
19196;BMP280;9730;48.926;11.376;2022-08-19T05:59:33;96803.88;;;19.55
19196;BMP280;9730;48.926;11.376;2022-08-19T06:02:01;96809.38;;;19.60
19196;BMP280;9730;48.926;11.376;2022-08-19T06:04:28;96806.81;;;19.60
19196;BMP280;9730;48.926;11.376;2022-08-19T06:06:54;96808.72;;;19.58
19196;BMP280;9730;48.926;11.376;2022-08-19T06:09:23;96805.47;;;19.56
19196;BMP280;9730;48.926;11.376;2022-08-19T06:11:51;96809.53;;;19.49
19196;BMP280;9730;48.926;11.376;2022-08-19T06:14:21;96802.50;;;19.60
19196;BMP280;9730;48.926;11.376;2022-08-19T06:16:48;96811.31;;;19.48
19196;BMP280;9730;48.926;11.376;2022-08-19T06:19:17;96800.78;;;19.51
19196;BMP280;9730;48.926;11.376;2022-08-19T06:21:47;96796.97;;;19.65
19196;BMP280;9730;48.926;11.376;2022-08-19T06:24:15;96803.16;;;19.35
19196;BMP280;9730;48.926;11.376;2022-08-19T06:26:45;96804.59;;;19.38
19196;BMP280;9730;48.926;11.376;2022-08-19T06:29:13;96806.81;;;19.60
19196;BMP280;9730;48.926;11.376;2022-08-19T06:31:42;96792.66;;;19.65
19196;BMP280;9730;48.926;11.376;2022-08-19T06:34:09;96801.25;;;19.64
19196;BMP280;9730;48.926;11.376;2022-08-19T06:36:38;96805.97;;;19.69
19196;BMP280;9730;48.926;11.376;2022-08-19T06:39:08;96801.50;;;19.71
19196;BMP280;9730;48.926;11.376;2022-08-19T06:41:36;96803.03;;;19.90
19196;BMP280;9730;48.926;11.376;2022-08-19T06:44:05;96813.31;;;19.81
19196;BMP280;9730;48.926;11.376;2022-08-19T06:46:32;96814.41;;;19.78
19196;BMP280;9730;48.926;11.376;2022-08-19T06:48:59;96826.50;;;19.76
19196;BMP280;9730;48.926;11.376;2022-08-19T06:51:26;96832.41;;;19.86
19196;BMP280;9730;48.926;11.376;2022-08-19T06:53:54;96834.72;;;19.80
19196;BMP280;9730;48.926;11.376;2022-08-19T06:56:23;96831.78;;;19.75
19196;BMP280;9730;48.926;11.376;2022-08-19T06:58:59;96829.22;;;19.75
19196;BMP280;9730;48.926;11.376;2022-08-19T07:01:27;96837.69;;;19.85
19196;BMP280;9730;48.926;11.376;2022-08-19T07:03:54;96836.44;;;19.89
19196;BMP280;9730;48.926;11.376;2022-08-19T07:06:21;96830.25;;;19.91
19196;BMP280;9730;48.926;11.376;2022-08-19T07:08:59;96822.81;;;20.15
19196;BMP280;9730;48.926;11.376;2022-08-19T07:11:25;96820.94;;;20.17
19196;BMP280;9730;48.926;11.376;2022-08-19T07:13:52;96822.13;;;20.23
19196;BMP280;9730;48.926;11.376;2022-08-19T07:16:20;96818.13;;;20.11
19196;BMP280;9730;48.926;11.376;2022-08-19T07:18:49;96822.72;;;20.17
19196;BMP280;9730;48.926;11.376;2022-08-19T07:21:19;96811.91;;;19.96
19196;BMP280;9730;48.926;11.376;2022-08-19T07:23:47;96815.84;;;19.90
19196;BMP280;9730;48.926;11.376;2022-08-19T07:26:16;96817.69;;;20.15
19196;BMP280;9730;48.926;11.376;2022-08-19T07:28:45;96809.53;;;20.12
19196;BMP280;9730;48.926;11.376;2022-08-19T07:31:13;96801.91;;;20.02
19196;BMP280;9730;48.926;11.376;2022-08-19T07:33:41;96809.53;;;20.12
19196;BMP280;9730;48.926;11.376;2022-08-19T07:36:11;96808.19;;;20.08
19196;BMP280;9730;48.926;11.376;2022-08-19T07:38:39;96818.00;;;20.12
19196;BMP280;9730;48.926;11.376;2022-08-19T07:41:07;96818.97;;;20.11
19196;BMP280;9730;48.926;11.376;2022-08-19T07:43:35;96815.63;;;20.01
19196;BMP280;9730;48.926;11.376;2022-08-19T07:46:01;96813.16;;;20.09
19196;BMP280;9730;48.926;11.376;2022-08-19T07:48:28;96815.38;;;20.04
19196;BMP280;9730;48.926;11.376;2022-08-19T07:50:56;96816.31;;;20.03
19196;BMP280;9730;48.926;11.376;2022-08-19T07:53:24;96820.06;;;20.26
19196;BMP280;9730;48.926;11.376;2022-08-19T07:55:51;96823.59;;;20.25
19196;BMP280;9730;48.926;11.376;2022-08-19T07:58:19;96822.28;;;20.56
19196;BMP280;9730;48.926;11.376;2022-08-19T08:00:48;96829.16;;;20.73
19196;BMP280;9730;48.926;11.376;2022-08-19T08:03:17;96826.59;;;20.90
19196;BMP280;9730;48.926;11.376;2022-08-19T08:05:44;96820.38;;;20.92
19196;BMP280;9730;48.926;11.376;2022-08-19T08:08:30;96815.25;;;20.92
19196;BMP280;9730;48.926;11.376;2022-08-19T08:11:11;96810.44;;;21.15
19196;BMP280;9730;48.926;11.376;2022-08-19T08:13:38;96795.34;;;21.12
19196;BMP280;9730;48.926;11.376;2022-08-19T08:16:06;96801.13;;;21.14
19196;BMP280;9730;48.926;11.376;2022-08-19T08:18:34;96795.59;;;20.66
19196;BMP280;9730;48.926;11.376;2022-08-19T08:21:06;96802.72;;;20.89
19196;BMP280;9730;48.926;11.376;2022-08-19T08:23:35;96803.56;;;20.73
19196;BMP280;9730;48.926;11.376;2022-08-19T08:26:01;96805.00;;;20.92
19196;BMP280;9730;48.926;11.376;2022-08-19T08:28:30;96811.38;;;20.88
19196;BMP280;9730;48.926;11.376;2022-08-19T08:30:57;96813.19;;;20.61
19196;BMP280;9730;48.926;11.376;2022-08-19T08:33:25;96817.28;;;20.37
19196;BMP280;9730;48.926;11.376;2022-08-19T08:35:52;96808.28;;;20.33
19196;BMP280;9730;48.926;11.376;2022-08-19T08:38:19;96802.53;;;20.48
19196;BMP280;9730;48.926;11.376;2022-08-19T08:40:50;96802.38;;;20.50
19196;BMP280;9730;48.926;11.376;2022-08-19T08:43:22;96804.56;;;20.62
19196;BMP280;9730;48.926;11.376;2022-08-19T08:45:56;96805.97;;;20.74
19196;BMP280;9730;48.926;11.376;2022-08-19T08:48:34;96806.88;;;20.90
19196;BMP280;9730;48.926;11.376;2022-08-19T08:51:03;96794.53;;;21.11
19196;BMP280;9730;48.926;11.376;2022-08-19T08:53:32;96796.28;;;20.85
19196;BMP280;9730;48.926;11.376;2022-08-19T08:56:03;96794.00;;;20.82
19196;BMP280;9730;48.926;11.376;2022-08-19T08:58:39;96792.28;;;20.83
19196;BMP280;9730;48.926;11.376;2022-08-19T09:01:09;96797.88;;;21.04
19196;BMP280;9730;48.926;11.376;2022-08-19T09:03:41;96800.44;;;20.86
19196;BMP280;9730;48.926;11.376;2022-08-19T09:06:14;96795.94;;;20.81
19196;BMP280;9730;48.926;11.376;2022-08-19T09:08:48;96800.75;;;21.09
19196;BMP280;9730;48.926;11.376;2022-08-19T09:11:25;96806.09;;;21.15
19196;BMP280;9730;48.926;11.376;2022-08-19T09:14:06;96804.66;;;21.46
19196;BMP280;9730;48.926;11.376;2022-08-19T09:16:35;96798.84;;;21.36
19196;BMP280;9730;48.926;11.376;2022-08-19T09:19:06;96796.06;;;21.22
19196;BMP280;9730;48.926;11.376;2022-08-19T09:21:33;96799.84;;;21.43
19196;BMP280;9730;48.926;11.376;2022-08-19T09:24:00;96796.91;;;21.30
19196;BMP280;9730;48.926;11.376;2022-08-19T09:26:29;96810.06;;;21.35
19196;BMP280;9730;48.926;11.376;2022-08-19T09:28:56;96788.09;;;21.58
19196;BMP280;9730;48.926;11.376;2022-08-19T09:31:27;96797.75;;;21.72
19196;BMP280;9730;48.926;11.376;2022-08-19T09:33:55;96791.91;;;21.54
19196;BMP280;9730;48.926;11.376;2022-08-19T09:36:23;96781.81;;;21.93
19196;BMP280;9730;48.926;11.376;2022-08-19T09:38:50;96780.81;;;22.51
19196;BMP280;9730;48.926;11.376;2022-08-19T09:41:18;96792.38;;;21.98
19196;BMP280;9730;48.926;11.376;2022-08-19T09:43:48;96800.75;;;22.00
19196;BMP280;9730;48.926;11.376;2022-08-19T09:46:18;96791.72;;;21.88
19196;BMP280;9730;48.926;11.376;2022-08-19T09:48:46;96794.53;;;21.62
19196;BMP280;9730;48.926;11.376;2022-08-19T09:51:16;96796.66;;;21.74
19196;BMP280;9730;48.926;11.376;2022-08-19T09:53:44;96790.06;;;21.72
19196;BMP280;9730;48.926;11.376;2022-08-19T09:56:11;96797.72;;;21.64
19196;BMP280;9730;48.926;11.376;2022-08-19T09:58:40;96793.16;;;21.83
19196;BMP280;9730;48.926;11.376;2022-08-19T10:01:08;96803.25;;;22.34
19196;BMP280;9730;48.926;11.376;2022-08-19T10:03:35;96800.50;;;22.19
19196;BMP280;9730;48.926;11.376;2022-08-19T10:06:04;96804.72;;;22.36
19196;BMP280;9730;48.926;11.376;2022-08-19T10:08:31;96802.63;;;22.24
19196;BMP280;9730;48.926;11.376;2022-08-19T10:10:59;96809.25;;;22.01
19196;BMP280;9730;48.926;11.376;2022-08-19T10:13:28;96803.97;;;21.94
19196;BMP280;9730;48.926;11.376;2022-08-19T10:16:01;96807.50;;;21.60
19196;BMP280;9730;48.926;11.376;2022-08-19T10:18:29;96806.81;;;21.50
19196;BMP280;9730;48.926;11.376;2022-08-19T10:21:05;96811.50;;;21.37
19196;BMP280;9730;48.926;11.376;2022-08-19T10:23:34;96819.38;;;21.36
19196;BMP280;9730;48.926;11.376;2022-08-19T10:26:01;96813.63;;;21.42
19196;BMP280;9730;48.926;11.376;2022-08-19T10:28:28;96821.03;;;21.45
19196;BMP280;9730;48.926;11.376;2022-08-19T10:30:55;96820.63;;;21.07
19196;BMP280;9730;48.926;11.376;2022-08-19T10:33:21;96815.59;;;20.97
19196;BMP280;9730;48.926;11.376;2022-08-19T10:35:58;96820.72;;;20.97
19196;BMP280;9730;48.926;11.376;2022-08-19T10:38:25;96819.50;;;20.67
19196;BMP280;9730;48.926;11.376;2022-08-19T10:40:51;96827.41;;;20.56
19196;BMP280;9730;48.926;11.376;2022-08-19T10:43:18;96813.94;;;20.36
19196;BMP280;9730;48.926;11.376;2022-08-19T10:45:51;96819.19;;;20.52
19196;BMP280;9730;48.926;11.376;2022-08-19T10:48:17;96825.84;;;20.45
19196;BMP280;9730;48.926;11.376;2022-08-19T10:50:44;96826.88;;;20.35
19196;BMP280;9730;48.926;11.376;2022-08-19T10:53:29;96830.16;;;20.27
19196;BMP280;9730;48.926;11.376;2022-08-19T10:55:56;96820.22;;;20.25
19196;BMP280;9730;48.926;11.376;2022-08-19T10:58:40;96820.78;;;20.19
19196;BMP280;9730;48.926;11.376;2022-08-19T11:01:07;96827.81;;;20.17
19196;BMP280;9730;48.926;11.376;2022-08-19T11:03:33;96827.34;;;20.30
19196;BMP280;9730;48.926;11.376;2022-08-19T11:06:01;96823.06;;;20.04
19196;BMP280;9730;48.926;11.376;2022-08-19T11:08:28;96815.97;;;20.33
19196;BMP280;9730;48.926;11.376;2022-08-19T11:10:59;96818.38;;;20.34
19196;BMP280;9730;48.926;11.376;2022-08-19T11:13:27;96821.19;;;20.41
19196;BMP280;9730;48.926;11.376;2022-08-19T11:15:58;96825.25;;;20.34
19196;BMP280;9730;48.926;11.376;2022-08-19T11:18:25;96826.00;;;20.27
19196;BMP280;9730;48.926;11.376;2022-08-19T11:20:52;96836.94;;;20.19
19196;BMP280;9730;48.926;11.376;2022-08-19T11:23:18;96830.03;;;20.29
19196;BMP280;9730;48.926;11.376;2022-08-19T11:25:45;96823.66;;;20.33
19196;BMP280;9730;48.926;11.376;2022-08-19T11:28:13;96808.19;;;20.08
19196;BMP280;9730;48.926;11.376;2022-08-19T11:30:40;96816.56;;;20.27
19196;BMP280;9730;48.926;11.376;2022-08-19T11:33:07;96805.34;;;20.45
19196;BMP280;9730;48.926;11.376;2022-08-19T11:35:38;96810.34;;;20.29
19196;BMP280;9730;48.926;11.376;2022-08-19T11:38:05;96808.09;;;20.27
19196;BMP280;9730;48.926;11.376;2022-08-19T11:40:32;96810.13;;;20.23
19196;BMP280;9730;48.926;11.376;2022-08-19T11:42:59;96810.28;;;20.39
19196;BMP280;9730;48.926;11.376;2022-08-19T11:45:27;96807.03;;;20.37
19196;BMP280;9730;48.926;11.376;2022-08-19T11:47:54;96803.91;;;20.43
19196;BMP280;9730;48.926;11.376;2022-08-19T11:50:21;96801.63;;;20.57
19196;BMP280;9730;48.926;11.376;2022-08-19T11:52:49;96802.44;;;20.58
19196;BMP280;9730;48.926;11.376;2022-08-19T11:55:16;96805.00;;;20.40
19196;BMP280;9730;48.926;11.376;2022-08-19T11:57:43;96804.00;;;20.33
19196;BMP280;9730;48.926;11.376;2022-08-19T12:00:13;96795.63;;;20.31
19196;BMP280;9730;48.926;11.376;2022-08-19T12:02:41;96795.94;;;20.46
19196;BMP280;9730;48.926;11.376;2022-08-19T12:05:09;96800.53;;;20.08
19196;BMP280;9730;48.926;11.376;2022-08-19T12:07:35;96812.66;;;20.23
19196;BMP280;9730;48.926;11.376;2022-08-19T12:10:03;96811.06;;;20.39
19196;BMP280;9730;48.926;11.376;2022-08-19T12:12:30;96814.28;;;20.24
19196;BMP280;9730;48.926;11.376;2022-08-19T12:14:56;96814.28;;;20.41
19196;BMP280;9730;48.926;11.376;2022-08-19T12:17:24;96806.91;;;20.56
19196;BMP280;9730;48.926;11.376;2022-08-19T12:19:52;96808.66;;;20.38
19196;BMP280;9730;48.926;11.376;2022-08-19T12:22:19;96808.06;;;20.44
19196;BMP280;9730;48.926;11.376;2022-08-19T12:24:46;96806.97;;;20.46
19196;BMP280;9730;48.926;11.376;2022-08-19T12:27:15;96803.66;;;20.54
19196;BMP280;9730;48.926;11.376;2022-08-19T12:29:42;96802.56;;;20.56
19196;BMP280;9730;48.926;11.376;2022-08-19T12:32:08;96798.78;;;20.60
19196;BMP280;9730;48.926;11.376;2022-08-19T12:34:35;96802.94;;;20.79
19196;BMP280;9730;48.926;11.376;2022-08-19T12:37:05;96807.91;;;20.45
19196;BMP280;9730;48.926;11.376;2022-08-19T12:39:34;96813.41;;;20.50
19196;BMP280;9730;48.926;11.376;2022-08-19T12:42:01;96806.69;;;20.67
19196;BMP280;9730;48.926;11.376;2022-08-19T12:44:28;96818.00;;;20.47
19196;BMP280;9730;48.926;11.376;2022-08-19T12:46:55;96829.28;;;20.54
19196;BMP280;9730;48.926;11.376;2022-08-19T12:49:22;96827.41;;;20.56
19196;BMP280;9730;48.926;11.376;2022-08-19T12:51:50;96834.06;;;20.49
19196;BMP280;9730;48.926;11.376;2022-08-19T12:54:18;96831.41;;;20.24
19196;BMP280;9730;48.926;11.376;2022-08-19T12:56:45;96832.41;;;20.13
19196;BMP280;9730;48.926;11.376;2022-08-19T12:59:11;96838.25;;;20.06
19196;BMP280;9730;48.926;11.376;2022-08-19T13:01:39;96829.31;;;20.10
19196;BMP280;9730;48.926;11.376;2022-08-19T13:04:06;96833.66;;;20.09
19196;BMP280;9730;48.926;11.376;2022-08-19T13:06:34;96836.50;;;20.06
19196;BMP280;9730;48.926;11.376;2022-08-19T13:09:01;96832.41;;;20.13
19196;BMP280;9730;48.926;11.376;2022-08-19T13:11:29;96830.28;;;20.09
19196;BMP280;9730;48.926;11.376;2022-08-19T13:13:58;96830.94;;;20.11
19196;BMP280;9730;48.926;11.376;2022-08-19T13:16:25;96839.06;;;20.06
19196;BMP280;9730;48.926;11.376;2022-08-19T13:18:53;96834.63;;;20.26
19196;BMP280;9730;48.926;11.376;2022-08-19T13:21:23;96836.44;;;20.33
19196;BMP280;9730;48.926;11.376;2022-08-19T13:23:50;96830.81;;;20.29
19196;BMP280;9730;48.926;11.376;2022-08-19T13:26:17;96832.16;;;20.33
19196;BMP280;9730;48.926;11.376;2022-08-19T13:28:46;96835.75;;;20.40
19196;BMP280;9730;48.926;11.376;2022-08-19T13:31:32;96835.94;;;20.47
19196;BMP280;9730;48.926;11.376;2022-08-19T13:34:19;96834.63;;;20.60
19196;BMP280;9730;48.926;11.376;2022-08-19T13:36:52;96839.53;;;20.54
19196;BMP280;9730;48.926;11.376;2022-08-19T13:39:19;96838.25;;;20.50
19196;BMP280;9730;48.926;11.376;2022-08-19T13:41:48;96835.47;;;20.61
19196;BMP280;9730;48.926;11.376;2022-08-19T13:44:17;96832.53;;;20.73
19196;BMP280;9730;48.926;11.376;2022-08-19T13:46:44;96833.53;;;20.63
19196;BMP280;9730;48.926;11.376;2022-08-19T13:49:11;96833.69;;;20.61
19196;BMP280;9730;48.926;11.376;2022-08-19T13:51:40;96836.84;;;20.55
19196;BMP280;9730;48.926;11.376;2022-08-19T13:54:07;96834.78;;;20.59
19196;BMP280;9730;48.926;11.376;2022-08-19T13:56:35;96828.88;;;20.58
19196;BMP280;9730;48.926;11.376;2022-08-19T13:59:05;96837.13;;;20.52
19196;BMP280;9730;48.926;11.376;2022-08-19T14:01:34;96834.28;;;20.73
19196;BMP280;9730;48.926;11.376;2022-08-19T14:04:01;96832.16;;;20.85
19196;BMP280;9730;48.926;11.376;2022-08-19T14:06:27;96835.63;;;20.77
19196;BMP280;9730;48.926;11.376;2022-08-19T14:08:54;96832.34;;;20.40
19196;BMP280;9730;48.926;11.376;2022-08-19T14:11:21;96835.31;;;20.45
19196;BMP280;9730;48.926;11.376;2022-08-19T14:13:48;96829.78;;;20.40
19196;BMP280;9730;48.926;11.376;2022-08-19T14:16:15;96837.72;;;20.29